sensor_id;sensor_type;location;lat;lon;timestamp;pressure;altitude;pressure_sealevel;temperature;humidity
21838;BME280;11081;45.946;6.140;2023-04-27T00:02:14;95158.94;;;12.36;49.25
21838;BME280;11081;45.946;6.140;2023-04-27T00:04:42;95162.13;;;12.38;49.76
21838;BME280;11081;45.946;6.140;2023-04-27T00:07:10;95165.78;;;12.37;49.97
21838;BME280;11081;45.946;6.140;2023-04-27T00:09:39;95166.25;;;12.34;50.19
21838;BME280;11081;45.946;6.140;2023-04-27T00:12:07;95165.56;;;12.27;50.40
21838;BME280;11081;45.946;6.140;2023-04-27T00:14:35;95161.91;;;12.28;50.89
21838;BME280;11081;45.946;6.140;2023-04-27T00:17:03;95158.28;;;12.29;51.04
21838;BME280;11081;45.946;6.140;2023-04-27T00:19:31;95156.91;;;12.26;51.75
21838;BME280;11081;45.946;6.140;2023-04-27T00:22:00;95156.00;;;12.20;51.47
21838;BME280;11081;45.946;6.140;2023-04-27T00:24:28;95156.47;;;12.17;51.67
21838;BME280;11081;45.946;6.140;2023-04-27T00:26:57;95154.44;;;12.19;52.32
21838;BME280;11081;45.946;6.140;2023-04-27T00:29:25;95156.94;;;12.14;52.68
21838;BME280;11081;45.946;6.140;2023-04-27T00:31:53;95156.94;;;12.14;52.11
21838;BME280;11081;45.946;6.140;2023-04-27T00:34:21;95152.97;;;12.12;52.54
21838;BME280;11081;45.946;6.140;2023-04-27T00:36:49;95154.66;;;12.06;52.72
21838;BME280;11081;45.946;6.140;2023-04-27T00:39:19;95144.66;;;12.03;53.25
21838;BME280;11081;45.946;6.140;2023-04-27T00:41:47;95149.88;;;12.03;52.93
21838;BME280;11081;45.946;6.140;2023-04-27T00:44:22;95156.47;;;12.06;53.25
21838;BME280;11081;45.946;6.140;2023-04-27T00:46:52;95153.88;;;12.06;53.16
21838;BME280;11081;45.946;6.140;2023-04-27T00:49:22;95141.47;;;12.01;53.07
21838;BME280;11081;45.946;6.140;2023-04-27T00:51:50;95147.06;;;11.93;53.15
21838;BME280;11081;45.946;6.140;2023-04-27T00:54:21;95150.59;;;11.87;53.41
21838;BME280;11081;45.946;6.140;2023-04-27T00:56:50;95142.63;;;11.82;53.35
21838;BME280;11081;45.946;6.140;2023-04-27T00:59:19;95140.34;;;11.74;53.48
21838;BME280;11081;45.946;6.140;2023-04-27T01:01:48;95143.97;;;11.73;53.04
21838;BME280;11081;45.946;6.140;2023-04-27T01:04:18;95139.22;;;11.70;52.82
21838;BME280;11081;45.946;6.140;2023-04-27T01:06:47;95144.91;;;11.67;53.22
21838;BME280;11081;45.946;6.140;2023-04-27T01:09:15;95144.91;;;11.67;52.99
21838;BME280;11081;45.946;6.140;2023-04-27T01:11:48;95149.66;;;11.70;52.90
21838;BME280;11081;45.946;6.140;2023-04-27T01:14:16;95138.66;;;11.68;53.55
21838;BME280;11081;45.946;6.140;2023-04-27T01:16:44;95146.03;;;11.71;52.89
21838;BME280;11081;45.946;6.140;2023-04-27T01:19:14;95140.34;;;11.74;52.84
21838;BME280;11081;45.946;6.140;2023-04-27T01:21:42;95147.16;;;11.75;53.07
21838;BME280;11081;45.946;6.140;2023-04-27T01:24:11;95143.41;;;11.71;53.25
21838;BME280;11081;45.946;6.140;2023-04-27T01:26:39;95141.03;;;11.69;53.25
21838;BME280;11081;45.946;6.140;2023-04-27T01:29:08;95134.88;;;11.64;53.41
21838;BME280;11081;45.946;6.140;2023-04-27T01:31:37;95131.69;;;11.61;52.82
21838;BME280;11081;45.946;6.140;2023-04-27T01:34:05;95141.69;;;11.65;53.11
21838;BME280;11081;45.946;6.140;2023-04-27T01:36:33;95134.44;;;11.67;54.00
21838;BME280;11081;45.946;6.140;2023-04-27T01:39:01;95140.22;;;11.69;54.13
21838;BME280;11081;45.946;6.140;2023-04-27T01:41:31;95143.72;;;11.63;54.58
21838;BME280;11081;45.946;6.140;2023-04-27T01:43:59;95146.25;;;11.57;54.61
21838;BME280;11081;45.946;6.140;2023-04-27T01:46:27;95148.41;;;11.49;55.41
21838;BME280;11081;45.946;6.140;2023-04-27T01:48:55;95154.41;;;11.49;55.60
21838;BME280;11081;45.946;6.140;2023-04-27T01:51:24;95151.34;;;11.52;54.86
21838;BME280;11081;45.946;6.140;2023-04-27T01:53:52;95156.81;;;11.51;54.87
21838;BME280;11081;45.946;6.140;2023-04-27T01:56:20;95150.22;;;11.48;55.65
21838;BME280;11081;45.946;6.140;2023-04-27T01:58:51;95147.59;;;11.48;55.58
21838;BME280;11081;45.946;6.140;2023-04-27T02:01:19;95142.69;;;11.40;56.84
21838;BME280;11081;45.946;6.140;2023-04-27T02:03:48;95133.25;;;11.39;56.55
21838;BME280;11081;45.946;6.140;2023-04-27T02:06:16;95140.09;;;11.40;56.29
21838;BME280;11081;45.946;6.140;2023-04-27T02:08:45;95127.59;;;11.42;55.96
21838;BME280;11081;45.946;6.140;2023-04-27T02:11:13;95135.31;;;11.37;55.78
21838;BME280;11081;45.946;6.140;2023-04-27T02:13:41;95142.59;;;11.35;55.73
21838;BME280;11081;45.946;6.140;2023-04-27T02:16:11;95134.28;;;11.38;55.72
21838;BME280;11081;45.946;6.140;2023-04-27T02:18:39;95142.00;;;11.45;55.74
21838;BME280;11081;45.946;6.140;2023-04-27T02:21:08;95135.66;;;11.41;56.33
21838;BME280;11081;45.946;6.140;2023-04-27T02:23:37;95131.22;;;11.41;56.43
21838;BME280;11081;45.946;6.140;2023-04-27T02:26:05;95135.66;;;11.41;56.48
21838;BME280;11081;45.946;6.140;2023-04-27T02:28:36;95142.47;;;11.42;56.09
21838;BME280;11081;45.946;6.140;2023-04-27T02:31:04;95140.66;;;11.42;56.12
21838;BME280;11081;45.946;6.140;2023-04-27T02:33:34;95144.84;;;11.43;56.07
21838;BME280;11081;45.946;6.140;2023-04-27T02:36:02;95146.44;;;11.44;56.06
21838;BME280;11081;45.946;6.140;2023-04-27T02:38:30;95148.06;;;11.45;55.89
21838;BME280;11081;45.946;6.140;2023-04-27T02:40:58;95146.09;;;11.41;55.94
21838;BME280;11081;45.946;6.140;2023-04-27T02:43:26;95147.91;;;11.40;55.84
21838;BME280;11081;45.946;6.140;2023-04-27T02:45:54;95155.69;;;11.47;55.91
21838;BME280;11081;45.946;6.140;2023-04-27T02:48:22;95152.84;;;11.48;56.04
21838;BME280;11081;45.946;6.140;2023-04-27T02:50:51;95152.38;;;11.51;55.75
21838;BME280;11081;45.946;6.140;2023-04-27T02:53:19;95151.47;;;11.57;56.41
21838;BME280;11081;45.946;6.140;2023-04-27T02:55:47;95157.81;;;11.61;56.32
21838;BME280;11081;45.946;6.140;2023-04-27T02:58:16;95143.41;;;11.59;56.25
21838;BME280;11081;45.946;6.140;2023-04-27T03:00:43;95146.25;;;11.57;57.00
21838;BME280;11081;45.946;6.140;2023-04-27T03:03:14;95147.94;;;11.64;56.20
21838;BME280;11081;45.946;6.140;2023-04-27T03:05:42;95146.91;;;11.65;56.91
21838;BME280;11081;45.946;6.140;2023-04-27T03:08:11;95154.41;;;11.49;58.71
21838;BME280;11081;45.946;6.140;2023-04-27T03:10:39;95154.41;;;11.49;58.25
21838;BME280;11081;45.946;6.140;2023-04-27T03:13:08;95157.16;;;11.54;58.44
21838;BME280;11081;45.946;6.140;2023-04-27T03:15:36;95148.84;;;11.57;58.36
21838;BME280;11081;45.946;6.140;2023-04-27T03:18:04;95155.91;;;11.57;58.18
21838;BME280;11081;45.946;6.140;2023-04-27T03:20:32;95155.09;;;11.56;58.11
21838;BME280;11081;45.946;6.140;2023-04-27T03:23:01;95156.69;;;11.57;58.38
21838;BME280;11081;45.946;6.140;2023-04-27T03:25:30;95155.09;;;11.56;57.62
21838;BME280;11081;45.946;6.140;2023-04-27T03:27:58;95152.50;;;11.56;57.49
21838;BME280;11081;45.946;6.140;2023-04-27T03:30:26;95159.19;;;11.52;58.13
21838;BME280;11081;45.946;6.140;2023-04-27T03:32:54;95165.34;;;11.46;59.39
21838;BME280;11081;45.946;6.140;2023-04-27T03:35:22;95157.81;;;11.38;59.93
21838;BME280;11081;45.946;6.140;2023-04-27T03:37:50;95146.22;;;11.34;60.04
21838;BME280;11081;45.946;6.140;2023-04-27T03:40:19;95162.34;;;11.31;59.23
21838;BME280;11081;45.946;6.140;2023-04-27T03:42:49;95157.47;;;11.35;58.94
21838;BME280;11081;45.946;6.140;2023-04-27T03:45:17;95147.81;;;11.35;59.73
21838;BME280;11081;45.946;6.140;2023-04-27T03:47:48;95153.47;;;11.32;59.03
21838;BME280;11081;45.946;6.140;2023-04-27T03:50:17;95148.72;;;11.29;58.58
21838;BME280;11081;45.946;6.140;2023-04-27T03:52:46;95152.91;;;11.30;59.17
21838;BME280;11081;45.946;6.140;2023-04-27T03:55:14;95153.44;;;11.20;59.15
21838;BME280;11081;45.946;6.140;2023-04-27T03:57:43;95152.72;;;11.02;59.05
21838;BME280;11081;45.946;6.140;2023-04-27T04:00:13;95150.25;;;11.07;59.16
21838;BME280;11081;45.946;6.140;2023-04-27T04:02:41;95147.06;;;11.05;59.16
21838;BME280;11081;45.946;6.140;2023-04-27T04:05:11;95152.28;;;11.05;59.71
21838;BME280;11081;45.946;6.140;2023-04-27T04:07:41;95151.91;;;11.01;59.56
21838;BME280;11081;45.946;6.140;2023-04-27T04:10:10;95144.75;;;10.96;59.48
21838;BME280;11081;45.946;6.140;2023-04-27T04:12:38;95145.56;;;10.97;59.68
21838;BME280;11081;45.946;6.140;2023-04-27T04:15:07;95149.97;;;10.96;59.63
21838;BME280;11081;45.946;6.140;2023-04-27T04:17:38;95150.56;;;10.98;59.55
21838;BME280;11081;45.946;6.140;2023-04-27T04:20:06;95145.91;;;11.00;59.47
21838;BME280;11081;45.946;6.140;2023-04-27T04:22:36;95142.28;;;11.02;59.86
21838;BME280;11081;45.946;6.140;2023-04-27T04:25:06;95147.06;;;11.05;60.17
21838;BME280;11081;45.946;6.140;2023-04-27T04:27:34;95142.28;;;11.02;60.03
21838;BME280;11081;45.946;6.140;2023-04-27T04:30:04;95147.94;;;10.98;60.48
21838;BME280;11081;45.946;6.140;2023-04-27T04:32:34;95153.16;;;10.98;60.68
21838;BME280;11081;45.946;6.140;2023-04-27T04:35:06;95149.53;;;10.99;61.04
21838;BME280;11081;45.946;6.140;2023-04-27T04:37:35;95150.34;;;11.00;61.52
21838;BME280;11081;45.946;6.140;2023-04-27T04:40:04;95153.16;;;10.98;61.73
21838;BME280;11081;45.946;6.140;2023-04-27T04:42:36;95153.38;;;10.97;62.14
21838;BME280;11081;45.946;6.140;2023-04-27T04:45:06;95156.09;;;10.90;62.13
21838;BME280;11081;45.946;6.140;2023-04-27T04:47:34;95156.00;;;10.97;61.50
21838;BME280;11081;45.946;6.140;2023-04-27T04:50:03;95155.94;;;11.04;62.20
21838;BME280;11081;45.946;6.140;2023-04-27T04:52:32;95153.44;;;11.09;61.98
21838;BME280;11081;45.946;6.140;2023-04-27T04:55:00;95161.50;;;11.07;61.76
21838;BME280;11081;45.946;6.140;2023-04-27T04:57:29;95155.47;;;11.07;62.37
21838;BME280;11081;45.946;6.140;2023-04-27T04:59:57;95150.47;;;11.05;62.55
21838;BME280;11081;45.946;6.140;2023-04-27T05:02:25;95157.06;;;11.08;62.08
21838;BME280;11081;45.946;6.140;2023-04-27T05:04:54;95154.31;;;11.03;62.60
21838;BME280;11081;45.946;6.140;2023-04-27T05:07:23;95155.56;;;10.70;62.62
21838;BME280;11081;45.946;6.140;2023-04-27T05:09:53;95157.00;;;10.84;62.92
21838;BME280;11081;45.946;6.140;2023-04-27T05:12:21;95159.41;;;10.97;62.19
21838;BME280;11081;45.946;6.140;2023-04-27T05:14:50;95159.13;;;11.06;63.05
21838;BME280;11081;45.946;6.140;2023-04-27T05:17:18;95157.53;;;11.05;63.24
21838;BME280;11081;45.946;6.140;2023-04-27T05:19:46;95157.06;;;11.08;63.17
21838;BME280;11081;45.946;6.140;2023-04-27T05:22:14;95161.41;;;11.14;62.88
21838;BME280;11081;45.946;6.140;2023-04-27T05:24:42;95162.97;;;11.15;63.30
21838;BME280;11081;45.946;6.140;2023-04-27T05:27:12;95165.59;;;11.15;63.58
21838;BME280;11081;45.946;6.140;2023-04-27T05:29:40;95163.66;;;11.22;63.11
21838;BME280;11081;45.946;6.140;2023-04-27T05:32:08;95167.22;;;11.27;63.81
21838;BME280;11081;45.946;6.140;2023-04-27T05:34:36;95165.53;;;11.33;63.14
21838;BME280;11081;45.946;6.140;2023-04-27T05:37:04;95173.94;;;11.35;63.78
21838;BME280;11081;45.946;6.140;2023-04-27T05:39:32;95166.66;;;11.37;63.85
21838;BME280;11081;45.946;6.140;2023-04-27T05:42:00;95179.84;;;11.42;64.39
21838;BME280;11081;45.946;6.140;2023-04-27T05:44:30;95165.34;;;11.46;64.30
21838;BME280;11081;45.946;6.140;2023-04-27T05:46:58;95165.56;;;11.56;64.26
21838;BME280;11081;45.946;6.140;2023-04-27T05:49:26;95161.91;;;11.57;63.78
21838;BME280;11081;45.946;6.140;2023-04-27T05:51:54;95161.91;;;11.57;64.50
21838;BME280;11081;45.946;6.140;2023-04-27T05:54:24;95172.84;;;11.54;64.61
21838;BME280;11081;45.946;6.140;2023-04-27T05:56:53;95173.38;;;11.33;66.43
21838;BME280;11081;45.946;6.140;2023-04-27T05:59:21;95166.56;;;11.44;65.65
21838;BME280;11081;45.946;6.140;2023-04-27T06:01:50;95160.91;;;11.58;64.58
21838;BME280;11081;45.946;6.140;2023-04-27T06:04:18;95170.59;;;11.70;64.04
21838;BME280;11081;45.946;6.140;2023-04-27T06:06:46;95174.47;;;11.79;63.90
21838;BME280;11081;45.946;6.140;2023-04-27T06:09:14;95175.25;;;11.79;64.64
21838;BME280;11081;45.946;6.140;2023-04-27T06:11:42;95180.03;;;11.82;64.84
21838;BME280;11081;45.946;6.140;2023-04-27T06:14:12;95185.59;;;11.86;64.64
21838;BME280;11081;45.946;6.140;2023-04-27T06:16:40;95187.91;;;11.94;64.96
21838;BME280;11081;45.946;6.140;2023-04-27T06:19:10;95188.56;;;12.01;65.05
21838;BME280;11081;45.946;6.140;2023-04-27T06:21:38;95189.69;;;12.05;64.80
21838;BME280;11081;45.946;6.140;2023-04-27T06:24:06;95195.97;;;12.16;64.24
21838;BME280;11081;45.946;6.140;2023-04-27T06:26:34;95198.53;;;12.28;63.72
21838;BME280;11081;45.946;6.140;2023-04-27T06:29:02;95195.59;;;12.36;63.44
21838;BME280;11081;45.946;6.140;2023-04-27T06:31:33;95202.63;;;12.47;62.94
21838;BME280;11081;45.946;6.140;2023-04-27T06:34:01;95194.41;;;12.55;62.41
21838;BME280;11081;45.946;6.140;2023-04-27T06:36:30;95196.66;;;12.63;62.56
21838;BME280;11081;45.946;6.140;2023-04-27T06:38:58;95200.97;;;12.69;62.31
21838;BME280;11081;45.946;6.140;2023-04-27T06:41:27;95196.09;;;12.73;62.11
21838;BME280;11081;45.946;6.140;2023-04-27T06:43:55;95195.94;;;12.79;62.17
21838;BME280;11081;45.946;6.140;2023-04-27T06:46:24;95189.59;;;12.75;62.42
21838;BME280;11081;45.946;6.140;2023-04-27T06:48:53;95190.06;;;12.72;61.95
21838;BME280;11081;45.946;6.140;2023-04-27T06:51:21;95196.75;;;12.68;61.67
21838;BME280;11081;45.946;6.140;2023-04-27T06:53:50;95202.22;;;12.67;60.81
21838;BME280;11081;45.946;6.140;2023-04-27T06:56:20;95205.75;;;12.72;60.48
21838;BME280;11081;45.946;6.140;2023-04-27T06:58:48;95204.63;;;12.68;61.04
21838;BME280;11081;45.946;6.140;2023-04-27T07:01:16;95199.19;;;12.58;61.08
21838;BME280;11081;45.946;6.140;2023-04-27T07:03:44;95206.13;;;12.64;60.84
21838;BME280;11081;45.946;6.140;2023-04-27T07:06:12;95207.06;;;12.87;60.24
21838;BME280;11081;45.946;6.140;2023-04-27T07:08:41;95206.75;;;12.83;60.44
21838;BME280;11081;45.946;6.140;2023-04-27T07:11:11;95201.03;;;12.86;60.27
21838;BME280;11081;45.946;6.140;2023-04-27T07:13:39;95205.00;;;12.89;59.78
21838;BME280;11081;45.946;6.140;2023-04-27T07:16:07;95197.28;;;12.94;59.81
21838;BME280;11081;45.946;6.140;2023-04-27T07:18:35;95199.03;;;13.05;59.31
21838;BME280;11081;45.946;6.140;2023-04-27T07:21:03;95195.56;;;13.16;58.60
21838;BME280;11081;45.946;6.140;2023-04-27T07:23:32;95194.19;;;13.25;58.52
21838;BME280;11081;45.946;6.140;2023-04-27T07:26:00;95195.31;;;13.46;57.76
21838;BME280;11081;45.946;6.140;2023-04-27T07:28:29;95198.53;;;13.65;56.58
21838;BME280;11081;45.946;6.140;2023-04-27T07:30:57;95198.03;;;13.68;56.87
21838;BME280;11081;45.946;6.140;2023-04-27T07:33:25;95193.44;;;13.75;56.58
21838;BME280;11081;45.946;6.140;2023-04-27T07:35:53;95186.13;;;13.77;57.57
21838;BME280;11081;45.946;6.140;2023-04-27T07:38:22;95192.00;;;13.84;57.27
21838;BME280;11081;45.946;6.140;2023-04-27T07:40:51;95186.28;;;13.70;58.35
21838;BME280;11081;45.946;6.140;2023-04-27T07:43:20;95186.13;;;13.77;57.75
21838;BME280;11081;45.946;6.140;2023-04-27T07:45:50;95179.91;;;13.83;57.05
21838;BME280;11081;45.946;6.140;2023-04-27T07:48:20;95185.00;;;13.73;57.95
21838;BME280;11081;45.946;6.140;2023-04-27T07:50:48;95182.31;;;13.85;57.28
21838;BME280;11081;45.946;6.140;2023-04-27T07:53:16;95184.66;;;14.03;56.39
21838;BME280;11081;45.946;6.140;2023-04-27T07:55:44;95190.41;;;13.83;56.55
21838;BME280;11081;45.946;6.140;2023-04-27T07:58:12;95193.59;;;13.85;56.50
21838;BME280;11081;45.946;6.140;2023-04-27T08:00:40;95183.56;;;13.99;56.45
21838;BME280;11081;45.946;6.140;2023-04-27T08:03:09;95171.91;;;14.12;55.41
21838;BME280;11081;45.946;6.140;2023-04-27T08:05:38;95177.88;;;14.24;55.34
21838;BME280;11081;45.946;6.140;2023-04-27T08:08:07;95182.41;;;14.12;55.36
21838;BME280;11081;45.946;6.140;2023-04-27T08:10:35;95180.50;;;14.24;54.44
21838;BME280;11081;45.946;6.140;2023-04-27T08:13:03;95174.75;;;14.27;54.01
21838;BME280;11081;45.946;6.140;2023-04-27T08:15:35;95161.19;;;14.35;54.84
21838;BME280;11081;45.946;6.140;2023-04-27T08:18:03;95169.06;;;14.35;54.45
21838;BME280;11081;45.946;6.140;2023-04-27T08:20:32;95169.78;;;14.47;53.91
21838;BME280;11081;45.946;6.140;2023-04-27T08:23:00;95165.16;;;14.54;54.47
21838;BME280;11081;45.946;6.140;2023-04-27T08:25:28;95154.72;;;14.59;54.64
21838;BME280;11081;45.946;6.140;2023-04-27T08:27:56;95158.44;;;14.63;54.07
21838;BME280;11081;45.946;6.140;2023-04-27T08:30:24;95159.03;;;14.71;54.35
21838;BME280;11081;45.946;6.140;2023-04-27T08:32:52;95153.91;;;14.81;54.18
21838;BME280;11081;45.946;6.140;2023-04-27T08:35:21;95148.66;;;14.81;53.92
21838;BME280;11081;45.946;6.140;2023-04-27T08:37:50;95148.44;;;14.87;54.02
21838;BME280;11081;45.946;6.140;2023-04-27T08:40:20;95156.69;;;14.96;54.36
21838;BME280;11081;45.946;6.140;2023-04-27T08:42:54;95157.47;;;14.97;53.50
21838;BME280;11081;45.946;6.140;2023-04-27T08:45:23;95152.53;;;15.00;53.84
21838;BME280;11081;45.946;6.140;2023-04-27T08:47:51;95148.06;;;15.01;53.84
21838;BME280;11081;45.946;6.140;2023-04-27T08:50:19;95147.66;;;15.14;53.88
21838;BME280;11081;45.946;6.140;2023-04-27T08:52:51;95148.56;;;15.24;54.36
21838;BME280;11081;45.946;6.140;2023-04-27T08:55:19;95151.50;;;15.33;53.51
21838;BME280;11081;45.946;6.140;2023-04-27T08:57:54;95150.81;;;15.43;53.41
21838;BME280;11081;45.946;6.140;2023-04-27T09:00:24;95149.31;;;15.52;54.41
21838;BME280;11081;45.946;6.140;2023-04-27T09:02:52;95152.28;;;15.61;54.50
21838;BME280;11081;45.946;6.140;2023-04-27T09:05:21;95149.50;;;15.72;53.21
21838;BME280;11081;45.946;6.140;2023-04-27T09:07:58;95137.63;;;15.70;54.20
21838;BME280;11081;45.946;6.140;2023-04-27T09:10:26;95137.91;;;15.73;53.59
21838;BME280;11081;45.946;6.140;2023-04-27T09:12:57;95136.44;;;15.88;52.88
21838;BME280;11081;45.946;6.140;2023-04-27T09:15:26;95136.94;;;15.84;53.23
21838;BME280;11081;45.946;6.140;2023-04-27T09:17:55;95140.19;;;16.02;52.48
21838;BME280;11081;45.946;6.140;2023-04-27T09:20:23;95131.84;;;16.10;53.16
21838;BME280;11081;45.946;6.140;2023-04-27T09:22:53;95129.28;;;16.25;52.99
21838;BME280;11081;45.946;6.140;2023-04-27T09:25:27;95130.38;;;16.39;53.01
21838;BME280;11081;45.946;6.140;2023-04-27T09:27:56;95135.72;;;16.55;52.61
21838;BME280;11081;45.946;6.140;2023-04-27T09:30:25;95133.72;;;16.77;51.85
21838;BME280;11081;45.946;6.140;2023-04-27T09:32:55;95119.78;;;16.92;51.91
21838;BME280;11081;45.946;6.140;2023-04-27T09:35:24;95127.44;;;17.03;51.54
21838;BME280;11081;45.946;6.140;2023-04-27T09:37:53;95120.06;;;17.05;52.16
21838;BME280;11081;45.946;6.140;2023-04-27T09:40:23;95123.75;;;16.94;50.30
21838;BME280;11081;45.946;6.140;2023-04-27T09:42:55;95127.38;;;16.73;49.98
21838;BME280;11081;45.946;6.140;2023-04-27T09:45:24;95134.75;;;16.71;50.51
21838;BME280;11081;45.946;6.140;2023-04-27T09:47:52;95130.03;;;16.78;50.02
21838;BME280;11081;45.946;6.140;2023-04-27T09:50:20;95134.25;;;16.79;49.04
21838;BME280;11081;45.946;6.140;2023-04-27T09:52:49;95130.53;;;16.70;48.19
21838;BME280;11081;45.946;6.140;2023-04-27T09:55:21;95124.22;;;16.81;49.87
21838;BME280;11081;45.946;6.140;2023-04-27T09:57:58;95132.72;;;17.03;49.45
21838;BME280;11081;45.946;6.140;2023-04-27T10:00:45;95121.16;;;17.10;48.63
21838;BME280;11081;45.946;6.140;2023-04-27T10:03:19;95124.88;;;17.29;49.89
21838;BME280;11081;45.946;6.140;2023-04-27T10:08:49;95123.78;;;17.45;49.21
21838;BME280;11081;45.946;6.140;2023-04-27T10:11:18;95122.75;;;17.31;49.09
21838;BME280;11081;45.946;6.140;2023-04-27T10:13:54;95115.88;;;17.40;50.30
21838;BME280;11081;45.946;6.140;2023-04-27T10:16:22;95117.47;;;17.51;48.18
21838;BME280;11081;45.946;6.140;2023-04-27T10:18:50;95119.06;;;17.52;48.11
21838;BME280;11081;45.946;6.140;2023-04-27T10:21:20;95111.13;;;17.37;48.77
21838;BME280;11081;45.946;6.140;2023-04-27T10:23:48;95101.13;;;17.34;48.69
21838;BME280;11081;45.946;6.140;2023-04-27T10:26:21;95105.31;;;17.45;49.39
21838;BME280;11081;45.946;6.140;2023-04-27T10:28:59;95113.78;;;17.37;47.85
21838;BME280;11081;45.946;6.140;2023-04-27T10:31:31;95115.88;;;17.45;47.87
21838;BME280;11081;45.946;6.140;2023-04-27T10:34:06;95114.81;;;17.56;47.81
21838;BME280;11081;45.946;6.140;2023-04-27T10:36:35;95106.38;;;17.70;47.92
21838;BME280;11081;45.946;6.140;2023-04-27T10:39:13;95120.09;;;17.46;48.01
21838;BME280;11081;45.946;6.140;2023-04-27T10:41:50;95107.97;;;17.55;48.00
21838;BME280;11081;45.946;6.140;2023-04-27T10:44:24;95107.97;;;17.76;47.19
21838;BME280;11081;45.946;6.140;2023-04-27T10:46:53;95108.47;;;17.93;47.57
21838;BME280;11081;45.946;6.140;2023-04-27T10:49:22;95111.59;;;18.05;48.64
21838;BME280;11081;45.946;6.140;2023-04-27T10:51:50;95118.47;;;18.06;49.10
21838;BME280;11081;45.946;6.140;2023-04-27T10:54:18;95113.50;;;17.79;49.46
21838;BME280;11081;45.946;6.140;2023-04-27T10:56:46;95113.22;;;17.65;50.49
21838;BME280;11081;45.946;6.140;2023-04-27T10:59:14;95105.31;;;17.65;49.97
21838;BME280;11081;45.946;6.140;2023-04-27T11:01:47;95105.34;;;17.71;49.17
21838;BME280;11081;45.946;6.140;2023-04-27T11:04:15;95103.25;;;17.73;50.03
21838;BME280;11081;45.946;6.140;2023-04-27T11:06:44;95105.84;;;17.67;49.02
21838;BME280;11081;45.946;6.140;2023-04-27T11:09:14;95107.44;;;17.68;49.54
21838;BME280;11081;45.946;6.140;2023-04-27T11:11:51;95105.09;;;17.72;48.88
21838;BME280;11081;45.946;6.140;2023-04-27T11:14:19;95106.94;;;17.72;49.99
21838;BME280;11081;45.946;6.140;2023-04-27T11:16:49;95111.69;;;17.75;49.67
21838;BME280;11081;45.946;6.140;2023-04-27T11:19:17;95107.69;;;17.62;49.92
21838;BME280;11081;45.946;6.140;2023-04-27T11:21:46;95106.38;;;17.64;48.64
21838;BME280;11081;45.946;6.140;2023-04-27T11:24:14;95115.91;;;17.71;48.82
21838;BME280;11081;45.946;6.140;2023-04-27T11:26:50;95114.31;;;17.80;47.30
21838;BME280;11081;45.946;6.140;2023-04-27T11:29:18;95116.94;;;17.85;48.42
21838;BME280;11081;45.946;6.140;2023-04-27T11:31:49;95114.81;;;17.87;46.97
21838;BME280;11081;45.946;6.140;2023-04-27T11:34:19;95107.94;;;17.86;46.83
21838;BME280;11081;45.946;6.140;2023-04-27T11:36:58;95110.06;;;17.94;47.33
21838;BME280;11081;45.946;6.140;2023-04-27T11:39:32;95120.09;;;17.92;46.46
21838;BME280;11081;45.946;6.140;2023-04-27T11:42:15;95116.63;;;18.07;45.80
21838;BME280;11081;45.946;6.140;2023-04-27T11:44:51;95119.50;;;18.20;45.88
21838;BME280;11081;45.946;6.140;2023-04-27T11:47:21;95115.25;;;18.24;45.61
21838;BME280;11081;45.946;6.140;2023-04-27T11:49:49;95119.22;;;18.27;46.49
21838;BME280;11081;45.946;6.140;2023-04-27T11:52:18;95115.50;;;18.28;45.24
21838;BME280;11081;45.946;6.140;2023-04-27T11:54:47;95110.44;;;18.42;45.37
21838;BME280;11081;45.946;6.140;2023-04-27T11:57:15;95106.16;;;18.56;44.78
21838;BME280;11081;45.946;6.140;2023-04-27T11:59:43;95106.16;;;18.56;43.77
21838;BME280;11081;45.946;6.140;2023-04-27T12:02:12;95107.78;;;18.47;44.83
21838;BME280;11081;45.946;6.140;2023-04-27T12:04:42;95116.28;;;18.39;43.97
21838;BME280;11081;45.946;6.140;2023-04-27T12:07:10;95119.44;;;18.41;44.87
21838;BME280;11081;45.946;6.140;2023-04-27T12:09:38;95113.59;;;18.44;44.07
21838;BME280;11081;45.946;6.140;2023-04-27T12:12:07;95120.97;;;18.52;42.78
21838;BME280;11081;45.946;6.140;2023-04-27T12:14:35;95115.66;;;18.62;42.40
21838;BME280;11081;45.946;6.140;2023-04-27T12:17:03;95112.44;;;18.75;42.04
21838;BME280;11081;45.946;6.140;2023-04-27T12:19:31;95113.50;;;18.74;41.27
21838;BME280;11081;45.946;6.140;2023-04-27T12:22:01;95111.38;;;18.71;41.15
21838;BME280;11081;45.946;6.140;2023-04-27T12:24:29;95114.22;;;18.85;41.27
21838;BME280;11081;45.946;6.140;2023-04-27T12:26:57;95113.09;;;19.01;40.42
21838;BME280;11081;45.946;6.140;2023-04-27T12:29:26;95113.53;;;19.13;40.18
21838;BME280;11081;45.946;6.140;2023-04-27T12:31:54;95108.22;;;19.13;40.63
21838;BME280;11081;45.946;6.140;2023-04-27T12:34:22;95111.06;;;19.27;40.09
21838;BME280;11081;45.946;6.140;2023-04-27T12:36:50;95107.56;;;19.32;39.98
21838;BME280;11081;45.946;6.140;2023-04-27T12:39:21;95107.22;;;19.43;39.80
21838;BME280;11081;45.946;6.140;2023-04-27T12:41:51;95109.72;;;19.30;39.68
21838;BME280;11081;45.946;6.140;2023-04-27T12:44:20;95107.81;;;19.35;40.18
21838;BME280;11081;45.946;6.140;2023-04-27T12:46:49;95111.94;;;19.52;39.55
21838;BME280;11081;45.946;6.140;2023-04-27T12:49:17;95112.81;;;19.42;39.55
21838;BME280;11081;45.946;6.140;2023-04-27T12:51:45;95105.06;;;19.50;39.76
21838;BME280;11081;45.946;6.140;2023-04-27T12:54:13;95102.13;;;19.52;39.94
21838;BME280;11081;45.946;6.140;2023-04-27T12:56:43;95099.75;;;19.50;40.36
21838;BME280;11081;45.946;6.140;2023-04-27T12:59:11;95103.97;;;19.57;39.86
21838;BME280;11081;45.946;6.140;2023-04-27T13:01:39;95102.81;;;19.68;38.57
21838;BME280;11081;45.946;6.140;2023-04-27T13:04:07;95102.53;;;19.69;38.89
21838;BME280;11081;45.946;6.140;2023-04-27T13:06:35;95098.41;;;19.87;39.24
21838;BME280;11081;45.946;6.140;2023-04-27T13:09:03;95109.44;;;19.94;39.14
21838;BME280;11081;45.946;6.140;2023-04-27T13:11:32;95105.16;;;19.98;40.54
21838;BME280;11081;45.946;6.140;2023-04-27T13:14:01;95099.31;;;20.01;39.52